createdAt,value
2023-08-11T00:01:52.254Z,12.62
2023-08-11T00:04:52.966Z,12.60
2023-08-11T00:07:22.961Z,12.55
2023-08-11T00:09:55.617Z,12.53
2023-08-11T00:18:17.136Z,12.47
2023-08-11T00:20:47.368Z,12.47
2023-08-11T00:23:25.628Z,12.48
2023-08-11T00:26:01.883Z,12.45
2023-08-11T00:28:36.507Z,12.43
2023-08-11T00:33:53.618Z,12.40
2023-08-11T00:36:29.573Z,12.42
2023-08-11T00:39:09.167Z,12.46
2023-08-11T00:41:41.787Z,12.49
2023-08-11T00:44:11.589Z,12.47
2023-08-11T00:46:55.767Z,12.47
2023-08-11T00:49:31.773Z,12.37
2023-08-11T00:52:08.360Z,12.33
2023-08-11T00:54:38.365Z,12.30
2023-08-11T00:57:22.079Z,12.24
2023-08-11T00:59:54.526Z,12.19
2023-08-11T01:05:24.102Z,12.19
2023-08-11T01:11:40.648Z,12.06
2023-08-11T01:14:46.382Z,12.02
2023-08-11T01:17:30.604Z,12.01
2023-08-11T01:20:03.537Z,12.00
2023-08-11T01:22:47.851Z,12.00
2023-08-11T01:25:23.060Z,11.98
2023-08-11T01:28:06.805Z,11.96
2023-08-11T01:33:32.093Z,11.96
2023-08-11T01:36:07.913Z,11.90
2023-08-11T01:38:56.531Z,11.84
2023-08-11T01:41:50.728Z,11.80
2023-08-11T01:45:17.543Z,11.79
2023-08-11T01:47:57.734Z,11.82
2023-08-11T01:50:31.838Z,11.77
2023-08-11T01:53:06.274Z,11.76
2023-08-11T01:56:02.624Z,11.78
2023-08-11T01:58:34.557Z,11.80
2023-08-11T02:01:10.620Z,11.82
2023-08-11T02:03:45.166Z,11.85
2023-08-11T02:06:37.822Z,11.79
2023-08-11T02:09:27.372Z,11.69
2023-08-11T02:11:56.553Z,11.67
2023-08-11T02:14:27.657Z,11.65
2023-08-11T02:16:57.946Z,11.65
2023-08-11T02:19:30.262Z,11.62
2023-08-11T02:21:58.547Z,11.57
2023-08-11T02:24:42.378Z,11.51
2023-08-11T02:27:18.181Z,11.44
2023-08-11T02:29:50.548Z,11.44
2023-08-11T02:32:27.454Z,11.44
2023-08-11T02:35:03.304Z,11.42
2023-08-11T02:37:39.203Z,11.45
2023-08-11T02:40:15.840Z,11.34
2023-08-11T02:43:04.778Z,11.30
2023-08-11T02:45:34.238Z,11.32
2023-08-11T02:48:01.179Z,11.23
2023-08-11T02:50:41.748Z,11.24
2023-08-11T02:53:16.119Z,11.28
2023-08-11T02:55:45.070Z,11.26
2023-08-11T02:58:20.895Z,11.25
2023-08-11T03:00:58.016Z,11.26
2023-08-11T03:03:32.950Z,11.24
2023-08-11T03:06:20.033Z,11.20
2023-08-11T03:08:51.919Z,11.17
2023-08-11T03:11:24.687Z,11.16
2023-08-11T03:13:57.759Z,11.15
2023-08-11T03:16:30.502Z,11.19
2023-08-11T03:19:03.831Z,11.23
2023-08-11T03:21:46.876Z,11.19
2023-08-11T03:24:17.506Z,11.18
2023-08-11T03:26:46.790Z,11.15
2023-08-11T03:29:15.515Z,11.11
2023-08-11T03:31:43.812Z,11.11
2023-08-11T03:34:17.667Z,11.08
2023-08-11T03:36:50.143Z,11.02
2023-08-11T03:39:17.775Z,10.99
2023-08-11T03:41:46.777Z,10.97
2023-08-11T03:44:16.354Z,10.95
2023-08-11T03:46:50.070Z,10.89
2023-08-11T03:52:18.685Z,10.95
2023-08-11T03:54:58.547Z,10.98
2023-08-11T03:57:27.566Z,10.97
2023-08-11T04:00:07.548Z,10.98
2023-08-11T04:02:42.163Z,10.99
2023-08-11T04:05:16.921Z,11.02
2023-08-11T04:07:46.382Z,11.01
2023-08-11T04:10:19.360Z,11.01
2023-08-11T04:12:51.011Z,11.05
2023-08-11T04:15:21.733Z,11.05
2023-08-11T04:17:56.092Z,11.12
2023-08-11T04:20:36.425Z,11.21
2023-08-11T04:23:08.244Z,11.30
2023-08-11T04:25:45.420Z,11.23
2023-08-11T04:30:55.355Z,11.73
2023-08-11T04:33:30.305Z,12.41
2023-08-11T04:38:44.586Z,13.81
2023-08-11T04:41:18.871Z,14.44
2023-08-11T04:44:00.809Z,15.04
2023-08-11T04:46:48.762Z,15.71
2023-08-11T04:49:16.764Z,16.41
2023-08-11T04:51:43.290Z,16.94
2023-08-11T04:54:11.536Z,17.71
2023-08-11T04:56:38.734Z,18.07
2023-08-11T04:59:06.178Z,17.88
2023-08-11T05:01:36.240Z,17.93
2023-08-11T05:04:03.850Z,18.41
2023-08-11T05:09:56.739Z,19.03
2023-08-11T05:12:31.149Z,19.72
2023-08-11T05:15:08.005Z,20.13
2023-08-11T05:17:40.557Z,20.05
2023-08-11T05:20:19.757Z,20.57
2023-08-11T05:22:53.629Z,20.53
2023-08-11T05:25:36.837Z,20.34
2023-08-11T05:28:09.365Z,20.47
2023-08-11T05:30:54.343Z,21.48
2023-08-11T05:33:31.837Z,21.57
2023-08-11T05:35:58.399Z,21.84
2023-08-11T05:38:24.866Z,21.73
2023-08-11T05:41:02.117Z,21.98
2023-08-11T05:43:31.981Z,22.47
2023-08-11T05:46:13.686Z,22.76
2023-08-11T05:48:48.375Z,23.36
2023-08-11T05:51:20.578Z,23.48
2023-08-11T05:54:00.372Z,23.93
2023-08-11T05:56:47.500Z,24.16
2023-08-11T05:59:28.034Z,23.90
2023-08-11T06:01:54.804Z,24.07
2023-08-11T06:04:21.515Z,25.00
2023-08-11T06:06:48.196Z,25.48
2023-08-11T06:09:15.184Z,25.41
2023-08-11T06:11:44.608Z,25.39
2023-08-11T06:14:11.311Z,25.48
2023-08-11T06:16:37.952Z,26.36
2023-08-11T06:19:04.708Z,26.47
2023-08-11T06:21:34.629Z,25.62
2023-08-11T06:24:01.440Z,25.38
2023-08-11T06:26:28.087Z,25.73
2023-08-11T06:28:54.609Z,25.56
2023-08-11T06:31:30.003Z,25.91
2023-08-11T06:33:58.734Z,25.57
2023-08-11T06:36:37.171Z,25.65
2023-08-11T06:41:55.524Z,26.19
2023-08-11T06:44:30.180Z,26.31
2023-08-11T06:46:59.522Z,26.47
2023-08-11T06:49:29.310Z,26.73
2023-08-11T06:51:57.664Z,26.78
2023-08-11T06:54:44.167Z,27.53
2023-08-11T06:57:13.650Z,27.33
2023-08-11T07:00:02.646Z,27.77
2023-08-11T07:02:31.901Z,27.41
2023-08-11T07:05:01.661Z,28.26
2023-08-11T07:07:31.262Z,27.70
2023-08-11T07:10:03.739Z,27.84
2023-08-11T07:12:34.155Z,28.31
2023-08-11T07:15:01.344Z,28.44
2023-08-11T07:17:28.512Z,28.43
2023-08-11T07:19:55.534Z,28.04
2023-08-11T07:22:24.381Z,28.71
2023-08-11T07:24:52.362Z,29.37
2023-08-11T07:27:19.565Z,28.97
2023-08-11T07:29:46.581Z,29.04
2023-08-11T07:32:13.305Z,29.62
2023-08-11T07:34:41.131Z,29.40
2023-08-11T07:37:08.200Z,29.16
2023-08-11T07:39:37.373Z,29.38
2023-08-11T07:42:04.352Z,29.79
2023-08-11T07:44:36.878Z,30.19
2023-08-11T07:47:04.031Z,29.93
2023-08-11T07:49:30.800Z,30.57
2023-08-11T07:51:58.565Z,29.65
2023-08-11T07:54:29.106Z,29.51
2023-08-11T07:56:55.781Z,29.48
2023-08-11T07:59:22.694Z,29.65
2023-08-11T08:01:49.684Z,29.89
2023-08-11T08:04:23.671Z,30.10
2023-08-11T08:06:50.313Z,30.30
2023-08-11T08:09:16.972Z,30.25
2023-08-11T08:11:47.483Z,30.88
2023-08-11T08:14:15.017Z,30.58
2023-08-11T08:16:50.975Z,30.21
2023-08-11T08:19:18.387Z,30.78
2023-08-11T08:21:45.204Z,30.45
2023-08-11T08:24:12.431Z,30.75
2023-08-11T08:26:41.767Z,30.69
2023-08-11T08:29:08.632Z,30.52
2023-08-11T08:31:40.343Z,30.49
2023-08-11T08:34:07.317Z,30.63
2023-08-11T08:36:50.592Z,30.04
2023-08-11T08:39:17.162Z,30.91
2023-08-11T08:42:18.504Z,30.63
2023-08-11T08:45:04.729Z,30.36
2023-08-11T08:47:38.245Z,30.45
2023-08-11T08:52:57.219Z,30.45
2023-08-11T08:55:31.627Z,29.84
2023-08-11T08:57:58.407Z,29.59
2023-08-11T09:00:25.007Z,29.58
2023-08-11T09:03:01.769Z,28.82
2023-08-11T09:05:34.774Z,28.89
2023-08-11T09:08:11.946Z,28.35
2023-08-11T09:10:42.518Z,28.36
2023-08-11T09:13:09.645Z,28.30
2023-08-11T09:15:40.249Z,28.14
2023-08-11T09:18:13.573Z,28.06
2023-08-11T09:23:37.408Z,27.96
2023-08-11T09:26:10.437Z,27.68
2023-08-11T09:28:48.059Z,27.15
2023-08-11T09:31:14.572Z,27.19
2023-08-11T09:33:42.808Z,26.96
2023-08-11T09:36:12.728Z,26.81
2023-08-11T09:38:43.999Z,27.14
2023-08-11T09:41:24.866Z,27.22
2023-08-11T09:43:55.446Z,27.31
2023-08-11T09:46:29.427Z,27.38
2023-08-11T09:48:56.475Z,27.14
2023-08-11T09:51:37.448Z,26.84
2023-08-11T09:54:08.548Z,27.04
2023-08-11T09:56:45.271Z,27.03
2023-08-11T09:59:22.024Z,27.17
2023-08-11T10:01:51.439Z,26.89
2023-08-11T10:04:45.809Z,27.04
2023-08-11T10:07:17.500Z,27.13
2023-08-11T10:09:50.047Z,27.08
2023-08-11T10:12:17.423Z,27.06
2023-08-11T10:14:47.385Z,26.91
2023-08-11T10:17:14.820Z,27.04
2023-08-11T10:19:41.530Z,27.00
2023-08-11T10:22:19.118Z,27.08
2023-08-11T10:24:48.172Z,27.00
2023-08-11T10:27:18.770Z,27.06
2023-08-11T10:29:49.375Z,26.95
2023-08-11T10:32:16.289Z,27.05
2023-08-11T10:34:46.923Z,27.02
2023-08-11T10:37:15.987Z,27.23
2023-08-11T10:40:12.104Z,27.19
2023-08-11T10:42:42.570Z,27.39
2023-08-11T10:45:16.892Z,27.46
2023-08-11T10:48:03.069Z,27.11
2023-08-11T14:15:45.382Z,27.79
2023-08-11T14:18:31.201Z,27.75
2023-08-11T14:21:32.241Z,27.69
2023-08-11T15:00:22.983Z,27.74
2023-08-11T15:03:24.746Z,27.90
2023-08-11T15:06:21.066Z,27.80
2023-08-11T15:09:21.941Z,27.89
2023-08-11T15:12:21.162Z,27.83
2023-08-11T15:18:38.940Z,27.54
2023-08-11T15:21:21.062Z,27.48
2023-08-11T15:24:04.785Z,27.44
2023-08-11T15:26:54.641Z,27.53
2023-08-11T15:29:57.014Z,27.61
2023-08-11T15:36:30.723Z,27.50
2023-08-11T15:43:02.604Z,27.58
2023-08-11T15:45:33.533Z,27.59
2023-08-11T15:48:44.001Z,27.65
2023-08-11T15:51:18.650Z,27.67
2023-08-11T15:53:54.535Z,27.63
2023-08-11T15:57:08.027Z,27.58
2023-08-11T16:01:22.365Z,27.52
2023-08-11T16:03:20.123Z,27.53
2023-08-11T16:05:59.945Z,27.57
2023-08-11T16:12:08.074Z,27.49
2023-08-11T16:14:45.529Z,27.46
2023-08-11T16:17:15.438Z,27.38
2023-08-11T16:19:45.133Z,27.34
2023-08-11T16:22:35.115Z,27.49
2023-08-11T16:25:05.133Z,27.39
2023-08-11T16:34:32.519Z,27.13
2023-08-11T16:40:18.518Z,27.15
2023-08-11T16:44:18.386Z,27.15
2023-08-11T16:47:01.394Z,27.18
2023-08-11T16:49:53.124Z,27.14
2023-08-11T16:52:44.651Z,27.12
2023-08-11T16:55:11.350Z,27.13
2023-08-11T16:57:38.669Z,27.14
2023-08-11T17:00:11.810Z,27.11
2023-08-11T17:02:38.451Z,27.24
2023-08-11T17:05:05.617Z,27.06
2023-08-11T17:07:32.834Z,26.96
2023-08-11T17:10:05.583Z,26.87
2023-08-11T17:12:33.853Z,26.92
2023-08-11T17:15:00.866Z,26.77
2023-08-11T17:17:32.274Z,26.79
2023-08-11T17:19:59.018Z,26.76
2023-08-11T17:22:27.243Z,26.74
2023-08-11T17:25:02.462Z,26.74
2023-08-11T17:27:32.004Z,26.71
2023-08-11T17:30:01.734Z,26.71
2023-08-11T17:32:28.843Z,26.69
2023-08-11T17:35:00.028Z,26.69
2023-08-11T17:37:27.346Z,26.54
2023-08-11T17:40:02.783Z,26.47
2023-08-11T17:42:31.923Z,26.47
2023-08-11T17:47:46.178Z,26.27
2023-08-11T17:50:27.016Z,26.14
2023-08-11T17:52:53.850Z,26.05
2023-08-11T17:55:37.704Z,25.99
2023-08-11T17:58:12.250Z,25.85
2023-08-11T18:00:44.638Z,25.72
2023-08-11T18:03:18.926Z,25.44
2023-08-11T18:06:07.927Z,25.22
2023-08-11T18:08:58.877Z,25.08
2023-08-11T18:11:37.639Z,24.92
2023-08-11T18:14:07.545Z,24.72
2023-08-11T18:16:35.731Z,24.70
2023-08-11T18:19:10.550Z,24.66
2023-08-11T18:21:48.954Z,24.34
2023-08-11T18:24:18.389Z,24.36
2023-08-11T18:26:44.931Z,24.36
2023-08-11T18:29:11.710Z,24.21
2023-08-11T18:31:38.337Z,24.04
2023-08-11T18:34:05.117Z,23.92
2023-08-11T18:36:34.501Z,23.87
2023-08-11T18:39:01.194Z,23.82
2023-08-11T18:41:27.673Z,23.78
2023-08-11T18:43:54.208Z,23.70
2023-08-11T18:46:20.773Z,23.59
2023-08-11T18:48:49.588Z,23.38
2023-08-11T18:51:18.624Z,23.31
2023-08-11T18:53:45.312Z,23.14
2023-08-11T18:56:12.461Z,22.98
2023-08-11T18:58:39.261Z,22.87
2023-08-11T19:01:09.184Z,22.69
2023-08-11T19:03:38.238Z,22.53
2023-08-11T19:06:05.792Z,22.52
2023-08-11T19:08:32.585Z,22.45
2023-08-11T19:11:08.219Z,22.35
2023-08-11T19:13:46.360Z,22.25
2023-08-11T19:16:17.370Z,22.21
2023-08-11T19:18:52.844Z,22.17
2023-08-11T19:21:22.522Z,22.18
2023-08-11T19:23:55.618Z,22.13
2023-08-11T19:26:24.475Z,22.11
2023-08-11T19:28:51.202Z,22.06
2023-08-11T19:31:18.113Z,22.05
2023-08-11T19:33:47.407Z,22.04
2023-08-11T19:36:15.446Z,22.02
2023-08-11T19:38:45.801Z,21.91
2023-08-11T19:41:13.842Z,21.80
2023-08-11T19:43:43.707Z,21.80
2023-08-11T19:46:14.920Z,21.75
2023-08-11T19:48:41.659Z,21.70
2023-08-11T19:51:14.413Z,21.65
2023-08-11T19:53:48.520Z,21.57
2023-08-11T19:56:15.390Z,21.45
2023-08-11T19:58:44.857Z,21.37
2023-08-11T20:01:13.619Z,21.26
2023-08-11T20:03:40.698Z,21.12
2023-08-11T20:06:09.668Z,21.16
2023-08-11T20:08:46.018Z,21.06
2023-08-11T20:11:15.434Z,20.94
2023-08-11T20:13:42.346Z,20.88
2023-08-11T20:16:09.926Z,20.83
2023-08-11T20:18:36.433Z,20.83
2023-08-11T20:21:03.174Z,20.77
2023-08-11T20:23:29.699Z,20.75
2023-08-11T20:25:56.187Z,20.72
2023-08-11T20:28:26.231Z,20.70
2023-08-11T20:30:52.978Z,20.71
2023-08-11T20:33:19.765Z,20.74
2023-08-11T20:35:48.644Z,20.76
2023-08-11T20:38:18.056Z,20.80
2023-08-11T20:40:48.080Z,20.79
2023-08-11T20:43:17.886Z,20.83
2023-08-11T20:45:52.574Z,20.88
2023-08-11T20:48:20.499Z,20.99
2023-08-11T20:50:51.143Z,21.10
2023-08-11T20:53:19.058Z,21.19
2023-08-11T20:55:45.705Z,21.25
2023-08-11T20:58:12.468Z,21.28
2023-08-11T21:00:45.618Z,21.32
2023-08-11T21:03:14.563Z,21.38
2023-08-11T21:05:42.546Z,21.38
2023-08-11T21:08:14.380Z,21.41
2023-08-11T21:10:42.600Z,21.44
2023-08-11T21:13:09.139Z,21.48
2023-08-11T21:15:40.880Z,21.48
2023-08-11T21:18:09.675Z,21.49
2023-08-11T21:20:40.760Z,21.54
2023-08-11T21:23:09.969Z,21.56
2023-08-11T21:25:36.839Z,21.50
2023-08-11T21:28:05.600Z,21.53
2023-08-11T21:30:46.633Z,21.45
2023-08-11T21:33:16.531Z,21.38
2023-08-11T21:35:45.870Z,21.30
2023-08-11T21:38:16.553Z,21.29
2023-08-11T21:40:43.627Z,21.32
2023-08-11T21:43:14.534Z,21.28
2023-08-11T21:45:43.309Z,21.25
2023-08-11T21:48:12.695Z,21.28
2023-08-11T21:50:44.882Z,21.31
2023-08-11T21:53:22.306Z,21.26
2023-08-11T21:58:33.722Z,21.27
2023-08-11T22:01:01.788Z,21.25
2023-08-11T22:03:31.271Z,21.23
2023-08-11T22:06:00.587Z,21.22
2023-08-11T22:08:27.493Z,21.10
2023-08-11T22:11:33.898Z,21.11
2023-08-11T22:17:10.086Z,20.99
2023-08-11T22:19:46.969Z,20.90
2023-08-11T22:22:20.733Z,20.87
2023-08-11T22:24:50.232Z,20.83
2023-08-11T22:27:23.669Z,20.73
2023-08-11T22:29:57.697Z,20.73
2023-08-11T22:32:32.486Z,20.70
2023-08-11T22:35:11.841Z,20.67
2023-08-11T22:37:51.918Z,20.61
2023-08-11T22:40:30.394Z,20.58
2023-08-11T22:42:58.960Z,20.55
2023-08-11T22:45:44.391Z,20.57
2023-08-11T22:48:22.474Z,20.54
2023-08-11T22:53:52.033Z,20.39
2023-08-11T22:56:39.604Z,20.38
2023-08-11T22:59:08.595Z,20.37
2023-08-11T23:01:41.313Z,20.36
2023-08-11T23:04:13.299Z,20.29
2023-08-11T23:06:40.165Z,20.31
2023-08-11T23:09:21.073Z,20.33
2023-08-11T23:11:51.127Z,20.34
2023-08-11T23:14:27.883Z,20.35
2023-08-11T23:16:57.992Z,20.35
2023-08-11T23:19:49.782Z,20.32
2023-08-11T23:22:16.409Z,20.25
2023-08-11T23:24:47.089Z,20.23
2023-08-11T23:27:19.861Z,20.24
2023-08-11T23:29:49.749Z,20.23
2023-08-11T23:32:17.989Z,20.25
2023-08-11T23:34:50.182Z,20.20
2023-08-11T23:37:24.981Z,20.12
2023-08-11T23:40:02.979Z,19.99
2023-08-11T23:42:56.240Z,20.03
2023-08-11T23:45:27.613Z,19.96
2023-08-11T23:48:07.910Z,19.96
